createdAt,value
2023-05-12T00:00:52.174Z,4.07
2023-05-12T00:03:20.232Z,3.73
2023-05-12T00:05:48.251Z,3.80
2023-05-12T00:08:17.612Z,3.60
2023-05-12T00:10:46.312Z,3.47
2023-05-12T00:13:14.282Z,3.47
2023-05-12T00:15:42.874Z,3.60
2023-05-12T00:18:10.872Z,3.50
2023-05-12T00:20:39.424Z,3.80
2023-05-12T00:23:09.068Z,3.43
2023-05-12T00:25:38.748Z,3.60
2023-05-12T00:28:07.237Z,3.83
2023-05-12T00:30:35.302Z,4.17
2023-05-12T00:33:05.846Z,3.83
2023-05-12T00:35:33.850Z,4.40
2023-05-12T00:38:08.040Z,4.20
2023-05-12T00:40:36.560Z,3.83
2023-05-12T00:43:09.055Z,4.03
2023-05-12T00:45:37.662Z,4.40
2023-05-12T00:48:07.814Z,4.20
2023-05-12T00:50:36.165Z,3.73
2023-05-12T00:53:05.149Z,3.80
2023-05-12T00:55:33.773Z,3.23
2023-05-12T00:58:01.776Z,3.10
2023-05-12T01:00:31.149Z,2.67
2023-05-12T01:02:59.518Z,3.03
2023-05-12T01:05:35.789Z,2.60
2023-05-12T01:08:07.794Z,2.40
2023-05-12T01:10:36.163Z,2.57
2023-05-12T01:13:04.251Z,2.80
2023-05-12T01:15:44.477Z,2.50
2023-05-12T01:18:13.875Z,3.13
2023-05-12T01:20:44.589Z,2.93
2023-05-12T01:23:14.530Z,2.90
2023-05-12T01:25:47.115Z,2.77
2023-05-12T01:28:17.591Z,2.70
2023-05-12T01:30:46.369Z,2.47
2023-05-12T01:33:14.605Z,2.70
2023-05-12T01:35:42.769Z,2.40
2023-05-12T01:38:10.693Z,2.47
2023-05-12T01:40:38.663Z,1.97
2023-05-12T01:43:09.004Z,2.17
2023-05-12T01:45:41.467Z,2.13
2023-05-12T01:48:21.650Z,1.83
2023-05-12T01:50:49.506Z,1.70
2023-05-12T01:53:17.575Z,1.80
2023-05-12T01:55:45.547Z,1.77
2023-05-12T01:58:13.469Z,1.37
2023-05-12T02:00:42.749Z,1.60
2023-05-12T02:03:11.175Z,1.37
2023-05-12T02:05:39.255Z,1.43
2023-05-12T02:08:07.498Z,1.80
2023-05-12T02:10:35.852Z,1.60
2023-05-12T02:13:03.917Z,1.80
2023-05-12T02:15:37.392Z,1.80
2023-05-12T02:18:07.852Z,2.00
2023-05-12T02:20:37.260Z,2.10
2023-05-12T02:23:05.728Z,2.83
2023-05-12T02:25:33.749Z,2.47
2023-05-12T02:28:01.798Z,3.27
2023-05-12T02:30:29.743Z,4.00
2023-05-12T02:32:57.741Z,3.30
2023-05-12T02:35:27.093Z,3.37
2023-05-12T02:37:55.015Z,3.80
2023-05-12T02:40:22.977Z,4.37
2023-05-12T02:42:50.946Z,4.60
2023-05-12T02:45:19.154Z,4.60
2023-05-12T02:47:47.137Z,4.90
2023-05-12T02:50:15.188Z,4.00
2023-05-12T02:52:47.100Z,4.70
2023-05-12T02:55:17.389Z,5.20
2023-05-12T02:57:45.393Z,5.40
2023-05-12T03:00:14.122Z,5.17
2023-05-12T03:02:42.794Z,4.90
2023-05-12T03:05:11.161Z,5.23
2023-05-12T03:07:39.568Z,5.67
2023-05-12T03:10:10.426Z,5.90
2023-05-12T03:12:38.423Z,5.90
2023-05-12T03:15:07.713Z,6.17
2023-05-12T03:17:36.076Z,6.43
2023-05-12T03:20:04.561Z,7.00
2023-05-12T03:22:32.583Z,6.57
2023-05-12T03:25:00.550Z,6.93
2023-05-12T03:27:29.820Z,7.97
2023-05-12T03:29:57.769Z,8.30
2023-05-12T03:32:25.843Z,8.03
2023-05-12T03:34:53.816Z,8.83
2023-05-12T03:37:21.749Z,8.50
2023-05-12T03:39:49.728Z,8.90
2023-05-12T03:42:17.784Z,9.53
2023-05-12T03:44:47.191Z,9.60
2023-05-12T03:47:15.233Z,9.43
2023-05-12T03:49:43.279Z,8.93
2023-05-12T03:52:11.306Z,9.53
2023-05-12T03:54:39.294Z,9.87
2023-05-12T03:57:07.507Z,10.10
2023-05-12T03:59:35.616Z,10.13
2023-05-12T04:02:07.761Z,10.47
2023-05-12T04:04:36.834Z,10.73
2023-05-12T04:07:04.905Z,11.30
2023-05-12T04:09:33.244Z,12.03
2023-05-12T04:12:01.247Z,12.30
2023-05-12T04:14:41.769Z,12.00
2023-05-12T04:17:14.782Z,11.47
2023-05-12T04:19:42.755Z,12.80
2023-05-12T04:22:10.768Z,12.43
2023-05-12T04:24:39.399Z,12.83
2023-05-12T04:27:08.129Z,13.10
2023-05-12T04:29:36.261Z,12.30
2023-05-12T04:32:04.411Z,13.53
2023-05-12T04:34:33.890Z,12.43
2023-05-12T04:37:01.853Z,14.27
2023-05-12T04:39:30.265Z,14.07
2023-05-12T04:41:58.615Z,13.33
2023-05-12T04:44:26.618Z,14.33
2023-05-12T04:46:56.437Z,13.87
2023-05-12T04:49:24.557Z,13.90
2023-05-12T04:51:54.222Z,14.60
2023-05-12T04:54:22.150Z,14.97
2023-05-12T04:56:50.074Z,14.57
2023-05-12T04:59:18.254Z,15.10
2023-05-12T05:01:46.364Z,14.50
2023-05-12T05:04:14.531Z,16.23
2023-05-12T05:06:42.516Z,16.23
2023-05-12T05:09:11.904Z,16.00
2023-05-12T05:11:39.861Z,16.27
2023-05-12T05:14:07.866Z,15.53
2023-05-12T05:16:35.914Z,15.83
2023-05-12T05:19:06.528Z,16.47
2023-05-12T05:21:37.407Z,16.43
2023-05-12T05:24:09.167Z,16.30
2023-05-12T05:26:38.568Z,16.47
2023-05-12T05:29:07.407Z,16.27
2023-05-12T05:31:35.436Z,17.17
2023-05-12T05:34:03.496Z,17.47
2023-05-12T05:36:31.798Z,17.57
2023-05-12T05:39:00.309Z,17.90
2023-05-12T05:41:29.622Z,17.33
2023-05-12T05:43:59.018Z,17.10
2023-05-12T05:46:27.114Z,17.20
2023-05-12T05:48:55.104Z,16.10
2023-05-12T05:51:23.517Z,17.40
2023-05-12T05:53:51.590Z,16.27
2023-05-12T05:56:19.676Z,17.63
2023-05-12T05:58:47.798Z,17.10
2023-05-12T06:01:17.203Z,17.40
2023-05-12T06:03:45.338Z,16.83
2023-05-12T06:06:13.325Z,16.07
2023-05-12T06:08:41.241Z,16.90
2023-05-12T06:11:09.183Z,17.27
2023-05-12T06:13:37.328Z,17.13
2023-05-12T06:16:05.626Z,16.83
2023-05-12T06:18:37.969Z,17.33
2023-05-12T06:21:06.831Z,16.30
2023-05-12T06:23:34.861Z,16.63
2023-05-12T06:26:03.157Z,16.70
2023-05-12T06:28:31.167Z,17.47
2023-05-12T06:30:59.815Z,17.07
2023-05-12T06:33:27.886Z,16.93
2023-05-12T06:35:57.532Z,16.77
2023-05-12T06:38:25.537Z,16.60
2023-05-12T06:40:53.502Z,16.83
2023-05-12T06:43:21.559Z,15.87
2023-05-12T06:45:49.660Z,15.93
2023-05-12T06:48:17.724Z,16.93
2023-05-12T06:50:46.508Z,17.60
2023-05-12T06:53:15.758Z,16.23
2023-05-12T06:55:44.390Z,15.97
2023-05-12T06:58:12.376Z,16.77
2023-05-12T07:00:40.416Z,15.93
2023-05-12T07:03:10.329Z,16.47
2023-05-12T07:05:39.677Z,17.00
2023-05-12T07:08:10.099Z,16.00
2023-05-12T07:10:40.066Z,15.57
2023-05-12T07:13:08.117Z,16.13
2023-05-12T07:15:36.426Z,16.67
2023-05-12T07:18:05.074Z,16.93
2023-05-12T07:20:35.160Z,16.57
2023-05-12T07:23:07.596Z,17.00
2023-05-12T07:25:35.657Z,17.03
2023-05-12T07:28:05.087Z,15.87
2023-05-12T07:30:33.463Z,16.53
2023-05-12T07:33:02.165Z,16.33
2023-05-12T07:35:31.136Z,17.87
2023-05-12T07:38:00.646Z,16.77
2023-05-12T07:40:28.583Z,17.17
2023-05-12T07:42:56.649Z,17.07
2023-05-12T07:45:29.048Z,16.97
2023-05-12T07:47:57.055Z,16.20
2023-05-12T07:50:25.790Z,17.53
2023-05-12T07:52:55.106Z,16.23
2023-05-12T07:55:25.787Z,17.33
2023-05-12T07:57:53.799Z,16.80
2023-05-12T08:00:23.534Z,16.10
2023-05-12T08:02:54.133Z,17.67
2023-05-12T08:05:24.473Z,16.50
2023-05-12T08:07:53.128Z,16.27
2023-05-12T08:10:21.967Z,16.83
2023-05-12T08:12:51.552Z,16.17
2023-05-12T08:15:19.645Z,15.77
2023-05-12T08:17:49.995Z,16.33
2023-05-12T08:20:19.667Z,16.10
2023-05-12T08:22:48.393Z,15.77
2023-05-12T08:25:18.043Z,15.13
2023-05-12T08:27:46.986Z,15.97
2023-05-12T08:30:16.896Z,15.57
2023-05-12T08:32:47.296Z,14.90
2023-05-12T08:38:11.838Z,14.73
2023-05-12T08:41:09.467Z,16.07
2023-05-12T08:43:44.628Z,15.70
2023-05-12T08:46:14.827Z,15.43
2023-05-12T08:48:43.363Z,14.97
2023-05-12T08:51:13.966Z,15.10
2023-05-12T08:53:46.765Z,15.73
2023-05-12T08:58:48.416Z,14.90
2023-05-12T09:01:18.437Z,16.10
2023-05-12T09:03:47.116Z,14.67
2023-05-12T09:06:16.049Z,14.87
2023-05-12T09:08:46.263Z,14.53
2023-05-12T09:11:15.378Z,17.57
2023-05-12T09:13:52.296Z,14.13
2023-05-12T09:16:24.133Z,15.33
2023-05-12T09:18:57.160Z,15.27
2023-05-12T09:21:26.408Z,14.57
2023-05-12T09:24:00.381Z,14.80
2023-05-12T09:26:29.592Z,14.33
2023-05-12T09:29:06.851Z,16.00
2023-05-12T09:31:35.042Z,14.63
2023-05-12T09:34:08.911Z,14.27
2023-05-12T09:36:37.101Z,13.93
2023-05-12T09:39:09.129Z,13.40
2023-05-12T09:41:37.738Z,14.77
2023-05-12T09:44:06.542Z,14.03
2023-05-12T09:46:34.684Z,14.40
2023-05-12T09:49:03.705Z,15.10
2023-05-12T09:51:32.293Z,14.30
2023-05-12T09:54:00.785Z,15.00
2023-05-12T09:56:32.300Z,14.50
2023-05-12T09:59:03.104Z,14.73
2023-05-12T10:01:32.493Z,13.53
2023-05-12T10:04:00.674Z,13.43
2023-05-12T10:06:33.905Z,13.13
2023-05-12T10:09:08.610Z,13.03
2023-05-12T10:11:40.002Z,12.90
2023-05-12T10:14:09.727Z,13.57
2023-05-12T10:16:39.195Z,13.00
2023-05-12T10:19:07.439Z,12.80
2023-05-12T10:21:37.590Z,12.13
2023-05-12T10:24:06.331Z,13.37
2023-05-12T10:26:39.860Z,12.83
2023-05-12T10:29:08.276Z,12.80
2023-05-12T10:31:37.057Z,13.10
2023-05-12T10:34:05.303Z,11.97
2023-05-12T10:36:43.463Z,12.60
2023-05-12T10:39:15.843Z,12.60
2023-05-12T10:41:45.528Z,13.47
2023-05-12T10:44:13.720Z,13.53
2023-05-12T10:46:42.949Z,12.60
2023-05-12T10:49:13.119Z,13.17
2023-05-12T10:51:49.886Z,12.70
2023-05-12T10:54:22.872Z,12.10
2023-05-12T10:56:52.817Z,12.07
2023-05-12T10:59:23.165Z,10.50
2023-05-12T11:02:03.664Z,11.73
2023-05-12T11:04:48.287Z,12.17
2023-05-12T11:07:18.786Z,12.00
2023-05-12T11:09:57.860Z,11.77
2023-05-12T11:12:32.463Z,11.37
2023-05-12T11:15:02.189Z,12.37
2023-05-12T11:17:30.384Z,11.03
2023-05-12T11:19:58.768Z,11.33
2023-05-12T11:22:28.660Z,11.57
2023-05-12T11:24:56.834Z,10.80
2023-05-12T11:27:27.792Z,10.63
2023-05-12T11:30:11.070Z,10.93
2023-05-12T11:32:39.196Z,10.40
2023-05-12T11:35:13.099Z,10.63
2023-05-12T11:37:42.312Z,9.37
2023-05-12T11:40:18.940Z,9.77
2023-05-12T11:42:51.379Z,9.50
2023-05-12T11:45:26.944Z,9.37
2023-05-12T11:48:07.203Z,9.53
2023-05-12T11:50:39.479Z,9.23
2023-05-12T11:53:15.001Z,9.30
2023-05-12T11:55:52.536Z,9.07
2023-05-12T11:58:22.366Z,9.33
2023-05-12T12:00:52.180Z,9.23
2023-05-12T12:03:20.789Z,9.43
2023-05-12T12:06:02.076Z,9.37
2023-05-12T12:08:32.305Z,9.40
2023-05-12T12:11:02.933Z,9.47
2023-05-12T12:13:31.969Z,9.30
2023-05-12T12:16:01.352Z,7.93
2023-05-12T12:18:29.694Z,8.37
2023-05-12T12:20:58.029Z,9.03
2023-05-12T12:23:26.041Z,9.37
2023-05-12T12:25:54.028Z,8.90
2023-05-12T12:28:23.737Z,8.13
2023-05-12T12:30:52.019Z,9.63
2023-05-12T12:33:21.641Z,9.00
2023-05-12T12:35:49.622Z,8.50
2023-05-12T12:38:20.615Z,8.27
2023-05-12T12:40:48.599Z,8.00
2023-05-12T12:43:18.007Z,8.30
2023-05-12T12:45:46.177Z,7.37
2023-05-12T12:48:14.304Z,7.70
2023-05-12T12:50:44.922Z,6.40
2023-05-12T12:53:13.566Z,6.87
2023-05-12T12:55:41.575Z,7.10
2023-05-12T12:58:09.529Z,7.63
2023-05-12T13:00:37.967Z,6.93
2023-05-12T13:03:08.151Z,7.43
2023-05-12T13:05:36.370Z,7.70
2023-05-12T13:08:05.939Z,7.70
2023-05-12T13:10:34.816Z,7.40
2023-05-12T13:13:02.837Z,6.90
2023-05-12T13:15:32.300Z,6.67
2023-05-12T13:18:00.325Z,6.17
2023-05-12T13:20:28.668Z,6.13
2023-05-12T13:22:57.014Z,6.53
2023-05-12T13:25:26.602Z,5.87
2023-05-12T13:27:54.656Z,6.90
2023-05-12T13:30:25.041Z,7.07
2023-05-12T13:32:53.223Z,6.80
2023-05-12T13:35:22.972Z,7.50
2023-05-12T13:37:51.070Z,8.10
2023-05-12T13:40:20.428Z,7.17
2023-05-12T13:42:49.772Z,7.70
2023-05-12T13:45:19.536Z,7.07
2023-05-12T13:47:48.109Z,7.23
2023-05-12T13:50:16.208Z,6.27
2023-05-12T13:52:44.093Z,6.20
2023-05-12T13:55:20.295Z,6.50
2023-05-12T13:57:50.519Z,6.67
2023-05-12T14:00:19.134Z,5.80
2023-05-12T14:02:47.189Z,6.27
2023-05-12T14:05:15.473Z,6.40
2023-05-12T14:07:44.843Z,5.73
2023-05-12T14:10:12.935Z,5.60
2023-05-12T14:12:42.936Z,6.90
2023-05-12T14:15:28.804Z,7.37
2023-05-12T14:18:02.789Z,6.97
2023-05-12T14:20:31.039Z,6.80
2023-05-12T14:22:59.205Z,6.80
2023-05-12T14:25:27.196Z,5.87
2023-05-12T14:27:55.467Z,6.03
2023-05-12T14:30:24.932Z,7.60
2023-05-12T14:32:53.306Z,7.80
2023-05-12T14:35:21.753Z,7.53
2023-05-12T14:37:50.005Z,7.10
2023-05-12T14:40:18.104Z,7.53
2023-05-12T14:42:47.852Z,7.33
2023-05-12T14:45:15.917Z,7.13
2023-05-12T14:47:45.285Z,8.17
2023-05-12T14:50:15.081Z,8.00
2023-05-12T14:52:44.736Z,7.13
2023-05-12T14:55:13.599Z,6.50
2023-05-12T14:57:42.466Z,6.73
2023-05-12T15:00:12.378Z,8.03
2023-05-12T15:02:41.089Z,7.17
2023-05-12T15:05:13.454Z,6.90
2023-05-12T15:07:41.495Z,6.73
2023-05-12T15:10:10.096Z,6.87
2023-05-12T15:12:38.076Z,7.27
2023-05-12T15:15:11.427Z,7.20
2023-05-12T15:17:41.187Z,7.87
2023-05-12T15:20:11.417Z,8.40
2023-05-12T15:22:39.425Z,7.67
2023-05-12T15:25:11.516Z,8.40
2023-05-12T15:27:39.548Z,7.33
2023-05-12T15:30:08.922Z,7.67
2023-05-12T15:32:37.516Z,7.63
2023-05-12T15:35:06.044Z,7.57
2023-05-12T15:37:35.712Z,7.70
2023-05-12T15:40:03.952Z,7.57
2023-05-12T15:42:33.222Z,7.20
2023-05-12T15:45:01.502Z,7.00
2023-05-12T15:47:31.852Z,6.47
2023-05-12T15:50:01.379Z,6.47
2023-05-12T15:52:29.606Z,6.77
2023-05-12T15:55:02.095Z,6.67
2023-05-12T15:57:30.100Z,7.37
2023-05-12T16:00:00.095Z,7.30
2023-05-12T16:02:28.365Z,7.73
2023-05-12T16:04:56.392Z,9.10
2023-05-12T16:07:29.295Z,9.33
2023-05-12T16:09:59.356Z,8.97
2023-05-12T16:12:27.831Z,8.47
2023-05-12T16:14:56.258Z,8.47
2023-05-12T16:17:24.236Z,7.70
2023-05-12T16:19:53.557Z,7.83
2023-05-12T16:22:21.668Z,7.70
2023-05-12T16:24:49.739Z,7.50
2023-05-12T16:27:19.188Z,7.67
2023-05-12T16:29:49.632Z,7.40
2023-05-12T16:32:18.083Z,7.43
2023-05-12T16:34:46.675Z,7.10
2023-05-12T16:37:14.720Z,6.27
2023-05-12T16:39:42.661Z,6.77
2023-05-12T16:42:10.596Z,6.40
2023-05-12T16:44:39.946Z,7.80
2023-05-12T16:47:08.072Z,7.20
2023-05-12T16:49:36.093Z,7.03
2023-05-12T16:52:04.113Z,6.27
2023-05-12T16:54:32.624Z,6.87
2023-05-12T16:57:02.154Z,8.07
2023-05-12T16:59:32.354Z,7.80
2023-05-12T17:02:01.977Z,7.07
2023-05-12T17:04:30.290Z,5.90
2023-05-12T17:06:58.829Z,6.10
2023-05-12T17:09:27.116Z,5.20
2023-05-12T17:11:55.126Z,5.50
2023-05-12T17:14:23.475Z,5.37
2023-05-12T17:16:51.652Z,5.40
2023-05-12T17:19:22.956Z,5.90
2023-05-12T17:21:50.933Z,6.17
2023-05-12T17:24:19.158Z,6.87
2023-05-12T17:26:48.867Z,8.10
2023-05-12T17:29:17.025Z,8.53
2023-05-12T17:31:45.079Z,7.73
2023-05-12T17:34:13.058Z,8.13
2023-05-12T17:36:42.373Z,8.27
2023-05-12T17:39:10.569Z,7.23
2023-05-12T17:41:38.519Z,7.13
2023-05-12T17:44:06.439Z,7.30
2023-05-12T17:46:34.479Z,7.50
2023-05-12T17:49:02.881Z,7.10
2023-05-12T17:51:32.105Z,7.20
2023-05-12T17:54:02.561Z,7.40
2023-05-12T17:56:30.824Z,7.27
2023-05-12T17:58:58.813Z,7.23
2023-05-12T18:01:27.018Z,7.63
2023-05-12T18:03:55.053Z,7.17
2023-05-12T18:06:22.995Z,7.40
2023-05-12T18:08:51.175Z,6.50
2023-05-12T18:11:20.551Z,6.97
2023-05-12T18:13:50.946Z,7.03
2023-05-12T18:16:28.526Z,6.70
2023-05-12T18:18:57.218Z,6.60
2023-05-12T18:21:26.064Z,6.93
2023-05-12T18:23:54.020Z,6.60
2023-05-12T18:26:24.758Z,7.23
2023-05-12T18:28:53.050Z,6.57
2023-05-12T18:31:21.307Z,5.93
2023-05-12T18:33:50.387Z,5.97
2023-05-12T18:36:19.055Z,6.43
2023-05-12T18:38:47.195Z,5.70
2023-05-12T18:41:15.255Z,6.13
2023-05-12T18:43:46.878Z,5.70
2023-05-12T18:46:14.928Z,5.53
2023-05-12T18:48:43.036Z,5.93
2023-05-12T18:51:13.722Z,6.10
2023-05-12T18:53:41.728Z,5.30
2023-05-12T18:56:09.807Z,5.50
2023-05-12T18:58:38.932Z,5.07
2023-05-12T19:01:08.480Z,5.53
2023-05-12T19:03:37.235Z,5.27
2023-05-12T19:06:05.280Z,5.43
2023-05-12T19:08:33.286Z,5.17
2023-05-12T19:11:01.297Z,5.20
2023-05-12T19:13:29.330Z,5.57
2023-05-12T19:15:57.403Z,4.90
2023-05-12T19:18:27.066Z,5.10
2023-05-12T19:20:57.638Z,5.33
2023-05-12T19:23:25.801Z,6.03
2023-05-12T19:25:54.708Z,5.97
2023-05-12T19:28:22.748Z,6.07
2023-05-12T19:30:50.806Z,6.33
2023-05-12T19:33:19.138Z,5.77
2023-05-12T19:35:48.658Z,6.17
2023-05-12T19:38:18.623Z,6.10
2023-05-12T19:40:48.942Z,6.10
2023-05-12T19:43:17.072Z,6.20
2023-05-12T19:45:45.042Z,5.90
2023-05-12T19:48:13.091Z,6.20
2023-05-12T19:50:41.020Z,6.23
2023-05-12T19:53:10.532Z,6.00
2023-05-12T19:55:39.167Z,6.20
2023-05-12T19:58:08.892Z,6.47
2023-05-12T20:00:39.293Z,6.40
2023-05-12T20:03:08.212Z,5.90
2023-05-12T20:05:37.563Z,6.27
2023-05-12T20:08:06.890Z,6.17
2023-05-12T20:10:36.708Z,6.33
2023-05-12T20:13:07.233Z,5.87
2023-05-12T20:15:35.157Z,6.10
2023-05-12T20:18:03.231Z,6.00
2023-05-12T20:20:31.500Z,6.40
2023-05-12T20:22:59.518Z,6.10
2023-05-12T20:25:29.748Z,7.07
2023-05-12T20:27:59.201Z,6.40
2023-05-12T20:30:27.407Z,6.83
2023-05-12T20:32:55.664Z,6.67
2023-05-12T20:35:23.820Z,6.87
2023-05-12T20:37:52.047Z,7.13
2023-05-12T20:40:20.617Z,7.30
2023-05-12T20:42:52.812Z,7.63
2023-05-12T20:45:24.963Z,7.30
2023-05-12T20:47:52.964Z,7.03
2023-05-12T20:50:21.067Z,6.93
2023-05-12T20:52:50.327Z,6.93
2023-05-12T20:55:18.793Z,7.07
2023-05-12T20:57:46.876Z,7.53
2023-05-12T21:00:15.766Z,7.13
2023-05-12T21:02:47.721Z,6.37
2023-05-12T21:05:16.026Z,6.87
2023-05-12T21:07:43.938Z,6.63
2023-05-12T21:10:12.008Z,6.27
2023-05-12T21:12:39.917Z,6.40
2023-05-12T21:15:11.367Z,6.23
2023-05-12T21:17:39.995Z,6.57
2023-05-12T21:20:12.493Z,6.43
2023-05-12T21:22:41.686Z,6.73
2023-05-12T21:25:10.594Z,5.80
2023-05-12T21:27:40.575Z,6.63
2023-05-12T21:30:10.277Z,5.67
2023-05-12T21:32:39.454Z,5.57
2023-05-12T21:35:11.823Z,6.03
2023-05-12T21:37:39.986Z,5.73
2023-05-12T21:40:10.333Z,5.73
2023-05-12T21:42:38.374Z,5.23
2023-05-12T21:45:07.942Z,5.70
2023-05-12T21:47:36.758Z,5.30
2023-05-12T21:50:05.235Z,5.67
2023-05-12T21:52:34.896Z,5.63
2023-05-12T21:55:04.725Z,5.23
2023-05-12T21:57:32.997Z,5.20
2023-05-12T22:00:04.642Z,5.43
2023-05-12T22:02:32.652Z,5.27
2023-05-12T22:05:00.914Z,4.40
2023-05-12T22:07:29.473Z,4.47
2023-05-12T22:09:58.840Z,5.03
2023-05-12T22:12:27.069Z,4.87
2023-05-12T22:14:56.417Z,4.80
2023-05-12T22:17:26.722Z,4.80
2023-05-12T22:19:55.908Z,4.50
2023-05-12T22:22:24.940Z,4.53
2023-05-12T22:24:52.954Z,4.40
2023-05-12T22:27:22.974Z,4.13
2023-05-12T22:29:51.012Z,4.30
2023-05-12T22:32:18.962Z,3.53
2023-05-12T22:34:46.967Z,3.27
2023-05-12T22:37:16.614Z,3.03
2023-05-12T22:39:44.585Z,3.13
2023-05-12T22:42:12.585Z,2.90
2023-05-12T22:44:41.968Z,2.97
2023-05-12T22:47:09.982Z,2.87
2023-05-12T22:49:38.087Z,2.67
2023-05-12T22:52:06.712Z,2.50
2023-05-12T22:54:34.716Z,2.63
2023-05-12T22:57:02.671Z,2.87
2023-05-12T22:59:31.209Z,2.70
2023-05-12T23:02:00.862Z,2.60
2023-05-12T23:04:28.841Z,3.00
2023-05-12T23:06:56.833Z,2.80
2023-05-12T23:09:24.839Z,2.70
2023-05-12T23:11:52.743Z,2.73
2023-05-12T23:14:21.003Z,2.87
2023-05-12T23:16:49.111Z,2.63
2023-05-12T23:19:18.454Z,2.60
2023-05-12T23:21:47.629Z,2.90
2023-05-12T23:24:15.625Z,2.73
2023-05-12T23:26:43.531Z,2.80
2023-05-12T23:29:11.519Z,2.87
2023-05-12T23:31:39.582Z,2.63
2023-05-12T23:34:07.589Z,2.67
2023-05-12T23:36:37.106Z,2.67
2023-05-12T23:39:05.185Z,2.87
2023-05-12T23:41:34.001Z,3.63
2023-05-12T23:44:02.295Z,3.33
2023-05-12T23:46:30.360Z,2.93
2023-05-12T23:49:00.816Z,3.13
2023-05-12T23:51:29.334Z,2.90
2023-05-12T23:53:58.649Z,3.27
2023-05-12T23:56:27.997Z,2.83
2023-05-12T23:58:56.016Z,3.63
